createdAt,value
2019-02-28T00:00:17.103Z,12.20
2019-02-28T00:02:45.564Z,10.40
2019-02-28T00:05:13.987Z,11.10
2019-02-28T00:07:42.424Z,10.83
2019-02-28T00:10:11.001Z,10.37
2019-02-28T00:12:39.737Z,12.07
2019-02-28T00:15:09.601Z,8.37
2019-02-28T00:17:42.691Z,12.03
2019-02-28T00:20:09.132Z,11.60
2019-02-28T00:22:37.609Z,9.87
2019-02-28T00:25:08.268Z,10.43
2019-02-28T00:27:36.687Z,10.63
2019-02-28T00:30:08.448Z,13.03
2019-02-28T00:32:36.856Z,11.20
2019-02-28T00:35:06.914Z,10.70
2019-02-28T00:37:35.340Z,11.83
2019-02-28T00:40:06.661Z,11.23
2019-02-28T00:42:34.751Z,11.70
2019-02-28T00:45:03.767Z,11.93
2019-02-28T00:47:32.332Z,9.80
2019-02-28T00:50:00.763Z,10.20
2019-02-28T00:52:32.015Z,12.90
2019-02-28T00:54:59.696Z,9.43
2019-02-28T00:57:28.117Z,12.00
2019-02-28T00:59:56.528Z,9.87
2019-02-28T01:02:24.956Z,9.90
2019-02-28T01:04:53.717Z,13.70
2019-02-28T01:07:22.146Z,10.63
2019-02-28T01:09:50.552Z,10.77
2019-02-28T01:12:19.914Z,13.27
2019-02-28T01:14:48.670Z,14.33
2019-02-28T01:17:17.089Z,12.73
2019-02-28T01:19:45.497Z,13.37
2019-02-28T01:22:14.088Z,12.07
2019-02-28T01:24:42.505Z,15.93
2019-02-28T01:27:10.947Z,12.47
2019-02-28T01:29:39.356Z,14.03
2019-02-28T01:32:07.783Z,14.07
2019-02-28T01:34:36.198Z,12.63
2019-02-28T01:37:04.694Z,12.17
2019-02-28T01:39:33.107Z,12.43
2019-02-28T01:42:20.892Z,13.50
2019-02-28T01:44:49.686Z,12.97
2019-02-28T01:47:19.973Z,12.90
2019-02-28T01:49:48.250Z,13.10
2019-02-28T01:52:16.677Z,11.93
2019-02-28T01:54:44.757Z,13.57
2019-02-28T01:57:13.180Z,11.23
2019-02-28T01:59:41.901Z,12.00
2019-02-28T02:02:10.331Z,11.87
2019-02-28T02:04:38.475Z,12.43
2019-02-28T02:07:06.650Z,11.70
2019-02-28T02:09:35.418Z,10.83
2019-02-28T02:12:03.510Z,13.47
2019-02-28T02:14:32.096Z,17.53
2019-02-28T02:17:01.246Z,15.90
2019-02-28T02:19:30.441Z,13.50
2019-02-28T02:21:58.856Z,10.43
2019-02-28T02:24:27.939Z,11.73
2019-02-28T02:26:57.376Z,13.10
2019-02-28T02:29:25.805Z,14.00
2019-02-28T02:31:54.209Z,12.03
2019-02-28T02:34:24.427Z,11.30
2019-02-28T02:36:54.332Z,13.37
2019-02-28T02:39:23.089Z,12.30
2019-02-28T02:41:51.512Z,11.13
2019-02-28T02:44:19.610Z,12.63
2019-02-28T02:46:48.021Z,13.37
2019-02-28T02:49:19.793Z,15.33
2019-02-28T02:51:50.353Z,13.17
2019-02-28T02:54:19.917Z,12.30
2019-02-28T02:56:46.917Z,12.83
2019-02-28T02:59:15.338Z,14.80
2019-02-28T03:01:43.748Z,13.03
2019-02-28T03:04:12.180Z,14.40
2019-02-28T03:06:40.593Z,11.60
2019-02-28T03:09:09.996Z,12.40
2019-02-28T03:11:39.105Z,12.93
2019-02-28T03:14:07.513Z,15.90
2019-02-28T03:16:35.934Z,12.30
2019-02-28T03:19:04.092Z,11.57
2019-02-28T03:21:32.513Z,13.63
2019-02-28T03:24:00.937Z,12.77
2019-02-28T03:26:29.348Z,14.00
2019-02-28T03:28:57.784Z,12.40
2019-02-28T03:31:27.112Z,12.00
2019-02-28T03:33:55.529Z,15.00
2019-02-28T03:36:23.940Z,11.63
2019-02-28T03:38:52.357Z,12.33
2019-02-28T03:41:20.446Z,11.70
2019-02-28T03:43:49.171Z,13.70
2019-02-28T03:46:17.577Z,10.83
2019-02-28T03:48:45.668Z,13.13
2019-02-28T03:51:14.087Z,13.07
2019-02-28T03:53:42.179Z,11.77
2019-02-28T03:56:14.306Z,12.70
2019-02-28T03:58:42.878Z,12.53
2019-02-28T04:01:10.979Z,10.87
2019-02-28T04:03:39.465Z,11.53
2019-02-28T04:06:07.881Z,11.47
2019-02-28T04:08:36.340Z,13.67
2019-02-28T04:11:04.759Z,11.83
2019-02-28T04:13:32.846Z,11.93
2019-02-28T04:16:08.566Z,12.33
2019-02-28T04:18:31.110Z,12.73
2019-02-28T04:20:59.439Z,11.93
2019-02-28T04:23:35.666Z,12.73
2019-02-28T04:25:57.933Z,13.60
2019-02-28T04:28:26.449Z,13.50
2019-02-28T04:30:54.559Z,11.93
2019-02-28T04:33:22.972Z,12.33
2019-02-28T04:35:51.388Z,10.73
2019-02-28T04:38:20.892Z,13.73
2019-02-28T04:40:49.568Z,11.20
2019-02-28T04:43:17.985Z,11.33
2019-02-28T04:45:46.412Z,11.33
2019-02-28T04:48:14.828Z,9.90
2019-02-28T04:50:43.258Z,11.67
2019-02-28T04:53:11.359Z,10.97
2019-02-28T04:55:39.452Z,10.73
2019-02-28T04:58:07.808Z,10.50
2019-02-28T05:00:37.878Z,12.30
2019-02-28T05:03:06.049Z,11.53
2019-02-28T05:05:34.489Z,12.60
2019-02-28T05:08:05.554Z,13.33
2019-02-28T05:10:33.058Z,12.10
2019-02-28T05:13:01.141Z,10.27
2019-02-28T05:15:29.560Z,12.90
2019-02-28T05:17:57.985Z,10.97
2019-02-28T05:20:26.408Z,12.37
2019-02-28T05:22:54.826Z,13.30
2019-02-28T05:25:23.264Z,13.57
2019-02-28T05:27:51.664Z,9.53
2019-02-28T05:30:19.897Z,11.30
2019-02-28T05:32:48.445Z,14.17
2019-02-28T05:35:16.878Z,19.83
2019-02-28T05:37:48.255Z,14.63
2019-02-28T05:40:16.080Z,11.93
2019-02-28T05:42:44.772Z,13.67
2019-02-28T05:45:14.899Z,11.17
2019-02-28T05:47:46.849Z,15.80
2019-02-28T05:50:16.816Z,10.87
2019-02-28T05:52:43.406Z,11.93
2019-02-28T05:55:11.558Z,10.80
2019-02-28T05:57:43.375Z,14.63
2019-02-28T06:00:16.376Z,11.10
2019-02-28T06:02:44.887Z,12.03
2019-02-28T06:05:13.029Z,12.63
2019-02-28T06:07:41.560Z,12.20
2019-02-28T06:10:12.080Z,11.63
2019-02-28T06:12:43.645Z,13.10
2019-02-28T06:15:15.499Z,11.07
2019-02-28T06:17:43.674Z,12.33
2019-02-28T06:20:16.453Z,11.33
2019-02-28T06:22:42.960Z,12.67
2019-02-28T06:25:12.925Z,11.80
2019-02-28T06:27:42.130Z,12.17
2019-02-28T06:30:13.860Z,10.53
2019-02-28T06:32:42.279Z,11.17
2019-02-28T06:35:16.134Z,11.87
2019-02-28T06:37:40.668Z,11.60
2019-02-28T06:40:12.116Z,13.30
2019-02-28T06:42:43.480Z,12.20
2019-02-28T06:45:15.570Z,10.43
2019-02-28T06:47:48.208Z,13.90
2019-02-28T06:50:15.006Z,12.77
2019-02-28T06:52:43.095Z,14.53
2019-02-28T06:55:13.380Z,16.13
2019-02-28T06:57:41.666Z,13.73
2019-02-28T07:00:13.446Z,13.53
2019-02-28T07:02:41.610Z,11.73
2019-02-28T07:05:10.153Z,14.37
2019-02-28T07:07:39.367Z,13.23
2019-02-28T07:10:16.377Z,12.73
2019-02-28T07:12:44.793Z,13.53
2019-02-28T07:15:13.672Z,13.70
2019-02-28T07:17:54.593Z,13.83
2019-02-28T07:20:23.036Z,13.73
2019-02-28T07:22:54.943Z,18.13
2019-02-28T07:25:21.643Z,13.17
2019-02-28T07:27:50.075Z,12.27
2019-02-28T07:30:19.763Z,15.33
2019-02-28T07:32:48.259Z,20.17
2019-02-28T07:35:16.671Z,13.03
2019-02-28T07:37:45.090Z,15.00
2019-02-28T07:40:17.709Z,12.73
2019-02-28T07:42:46.366Z,15.73
2019-02-28T07:45:15.666Z,13.83
2019-02-28T07:47:44.124Z,15.73
2019-02-28T07:50:16.379Z,16.00
2019-02-28T07:52:44.807Z,12.40
2019-02-28T07:55:21.038Z,14.53
2019-02-28T07:57:52.667Z,16.17
2019-02-28T08:00:20.869Z,15.80
2019-02-28T08:02:49.300Z,13.20
2019-02-28T08:05:17.945Z,16.33
2019-02-28T08:07:51.988Z,14.77
2019-02-28T08:10:25.008Z,15.10
2019-02-28T08:12:53.436Z,13.47
2019-02-28T08:15:24.168Z,16.80
2019-02-28T08:17:52.665Z,17.77
2019-02-28T08:20:21.421Z,17.27
2019-02-28T08:22:50.212Z,15.73
2019-02-28T08:25:18.692Z,17.70
2019-02-28T08:27:47.119Z,16.03
2019-02-28T08:30:19.643Z,15.07
2019-02-28T08:32:48.660Z,14.27
2019-02-28T08:35:17.153Z,18.97
2019-02-28T08:37:45.576Z,18.40
2019-02-28T08:40:38.897Z,17.87
2019-02-28T08:43:07.331Z,13.83
2019-02-28T08:45:35.741Z,18.13
2019-02-28T08:48:05.213Z,15.80
2019-02-28T08:50:33.637Z,16.67
2019-02-28T08:53:06.149Z,25.40
2019-02-28T08:55:34.597Z,20.73
2019-02-28T08:58:06.216Z,18.47
2019-02-28T09:00:33.496Z,20.47
2019-02-28T09:03:02.141Z,20.23
2019-02-28T09:05:30.575Z,20.00
2019-02-28T09:07:58.996Z,26.03
2019-02-28T09:10:27.796Z,17.47
2019-02-28T09:12:56.208Z,18.20
2019-02-28T09:15:30.064Z,18.13
2019-02-28T09:17:58.146Z,18.33
2019-02-28T09:20:24.992Z,19.23
2019-02-28T09:22:53.414Z,17.77
2019-02-28T09:25:23.180Z,21.50
2019-02-28T09:27:51.956Z,22.80
2019-02-28T09:30:44.452Z,21.90
2019-02-28T09:33:12.887Z,20.10
2019-02-28T09:35:45.172Z,19.50
2019-02-28T09:38:13.617Z,21.80
2019-02-28T09:40:41.953Z,18.33
2019-02-28T09:43:10.373Z,16.83
2019-02-28T09:45:39.817Z,16.20
2019-02-28T09:48:08.992Z,20.17
2019-02-28T09:50:37.412Z,17.23
2019-02-28T09:53:06.162Z,19.33
2019-02-28T09:55:35.516Z,26.63
2019-02-28T09:58:04.011Z,19.33
2019-02-28T10:00:32.832Z,17.63
2019-02-28T10:03:01.327Z,16.77
2019-02-28T10:05:29.743Z,14.93
2019-02-28T10:08:01.652Z,14.30
2019-02-28T10:10:30.048Z,14.60
2019-02-28T10:12:58.475Z,13.63
2019-02-28T10:15:27.368Z,16.87
2019-02-28T10:17:55.788Z,17.20
2019-02-28T10:20:35.500Z,15.50
2019-02-28T10:23:04.090Z,17.63
2019-02-28T10:25:32.598Z,15.10
2019-02-28T10:28:02.584Z,11.53
2019-02-28T10:30:32.596Z,14.73
2019-02-28T10:33:01.200Z,13.20
2019-02-28T10:35:29.617Z,14.00
2019-02-28T10:37:58.912Z,17.27
2019-02-28T10:40:32.835Z,26.90
2019-02-28T10:43:01.002Z,12.93
2019-02-28T10:45:29.454Z,17.27
2019-02-28T10:48:02.888Z,15.93
2019-02-28T10:50:33.453Z,13.83
2019-02-28T10:53:05.537Z,19.27
2019-02-28T10:55:32.331Z,13.63
2019-02-28T10:58:00.400Z,15.03
2019-02-28T11:00:36.490Z,12.83
2019-02-28T11:03:04.635Z,14.00
2019-02-28T11:05:33.814Z,16.50
2019-02-28T11:08:02.497Z,14.67
2019-02-28T11:10:36.382Z,14.93
2019-02-28T11:13:05.462Z,15.33
2019-02-28T11:15:33.722Z,13.47
2019-02-28T11:18:01.792Z,15.67
2019-02-28T11:20:29.956Z,13.57
2019-02-28T11:22:58.125Z,14.17
2019-02-28T11:25:26.685Z,15.60
2019-02-28T11:27:54.806Z,19.07
2019-02-28T11:30:24.441Z,11.43
2019-02-28T11:32:52.932Z,12.90
2019-02-28T11:35:23.158Z,14.67
2019-02-28T11:37:50.968Z,14.30
2019-02-28T11:40:20.125Z,12.60
2019-02-28T11:42:48.408Z,11.30
2019-02-28T11:45:18.540Z,11.70
2019-02-28T11:47:48.800Z,12.60
2019-02-28T11:50:16.880Z,13.07
2019-02-28T11:52:44.979Z,14.03
2019-02-28T11:55:13.433Z,12.57
2019-02-28T11:57:42.111Z,11.63
2019-02-28T12:00:18.588Z,14.10
2019-02-28T12:02:53.075Z,10.57
2019-02-28T12:05:17.025Z,12.40
2019-02-28T12:07:45.117Z,13.97
2019-02-28T12:10:13.192Z,10.37
2019-02-28T12:12:41.527Z,13.40
2019-02-28T12:15:12.873Z,12.00
2019-02-28T12:17:41.048Z,12.93
2019-02-28T12:20:10.397Z,12.23
2019-02-28T12:22:38.480Z,15.73
2019-02-28T12:25:08.480Z,12.87
2019-02-28T12:27:42.620Z,19.60
2019-02-28T12:30:12.477Z,14.07
2019-02-28T12:32:43.457Z,13.60
2019-02-28T12:35:10.384Z,12.13
2019-02-28T12:37:38.821Z,12.33
2019-02-28T12:40:10.345Z,13.60
2019-02-28T12:42:38.312Z,13.63
2019-02-28T12:45:14.140Z,15.00
2019-02-28T12:47:42.578Z,13.03
2019-02-28T12:50:13.365Z,17.20
2019-02-28T12:52:41.861Z,14.50
2019-02-28T12:55:18.234Z,12.43
2019-02-28T12:57:46.728Z,15.87
2019-02-28T13:00:24.107Z,14.00
2019-02-28T13:02:52.695Z,15.80
2019-02-28T13:05:21.119Z,14.30
2019-02-28T13:07:49.544Z,13.93
2019-02-28T13:10:19.688Z,16.53
2019-02-28T13:12:48.909Z,14.83
2019-02-28T13:15:19.334Z,15.93
2019-02-28T13:17:47.912Z,13.33
2019-02-28T13:20:19.044Z,13.33
2019-02-28T13:22:47.466Z,13.20
2019-02-28T13:25:19.500Z,13.10
2019-02-28T13:27:46.513Z,12.73
2019-02-28T13:30:20.086Z,14.07
2019-02-28T13:32:48.548Z,14.53
2019-02-28T13:35:19.473Z,12.33
2019-02-28T13:37:47.965Z,13.03
2019-02-28T13:40:16.753Z,13.13
2019-02-28T13:42:45.240Z,15.30
2019-02-28T13:45:23.112Z,12.23
2019-02-28T13:47:47.921Z,13.63
2019-02-28T13:50:25.837Z,12.37
2019-02-28T13:52:55.555Z,13.00
2019-02-28T13:55:23.981Z,15.80
2019-02-28T13:57:52.409Z,16.43
2019-02-28T14:00:25.724Z,13.20
2019-02-28T14:03:08.818Z,13.87
2019-02-28T14:05:38.709Z,15.10
2019-02-28T14:08:09.785Z,14.37
2019-02-28T14:10:33.504Z,15.10
2019-02-28T14:13:03.266Z,15.93
2019-02-28T14:15:47.913Z,15.10
2019-02-28T14:18:16.468Z,15.33
2019-02-28T14:20:45.189Z,16.23
2019-02-28T14:23:20.083Z,14.13
2019-02-28T14:25:45.129Z,15.10
2019-02-28T14:28:13.557Z,18.20
2019-02-28T14:30:42.005Z,15.07
2019-02-28T14:33:10.432Z,14.20
2019-02-28T14:35:39.020Z,16.73
2019-02-28T14:38:07.441Z,15.13
2019-02-28T14:40:35.927Z,11.60
2019-02-28T14:43:04.519Z,15.23
2019-02-28T14:45:43.073Z,15.07
2019-02-28T14:48:11.181Z,15.27
2019-02-28T14:50:39.868Z,16.57
2019-02-28T14:53:13.243Z,18.20
2019-02-28T14:55:38.869Z,13.17
2019-02-28T14:58:07.304Z,13.40
2019-02-28T15:00:38.991Z,13.20
2019-02-28T15:03:06.153Z,14.60
2019-02-28T15:05:39.481Z,13.27
2019-02-28T15:08:08.302Z,15.13
2019-02-28T15:10:36.814Z,14.60
2019-02-28T15:13:05.277Z,12.30
2019-02-28T15:15:36.194Z,12.97
2019-02-28T15:18:04.407Z,12.60
2019-02-28T15:20:33.165Z,15.60
2019-02-28T15:23:01.996Z,14.17
2019-02-28T15:25:31.057Z,13.13
2019-02-28T15:27:59.503Z,13.10
2019-02-28T15:30:55.005Z,13.60
2019-02-28T15:33:23.424Z,11.47
2019-02-28T15:35:51.866Z,13.37
2019-02-28T15:38:20.293Z,12.50
2019-02-28T15:40:48.705Z,12.50
2019-02-28T15:43:18.216Z,16.83
2019-02-28T15:45:46.916Z,20.00
2019-02-28T15:48:15.012Z,23.83
2019-02-28T15:50:43.425Z,18.07
2019-02-28T15:53:15.114Z,21.83
2019-02-28T15:55:41.661Z,19.33
2019-02-28T15:58:09.753Z,20.37
2019-02-28T16:00:38.105Z,23.63
2019-02-28T16:03:06.271Z,23.33
2019-02-28T16:05:34.691Z,20.50
2019-02-28T16:08:09.054Z,19.20
2019-02-28T16:10:36.214Z,22.17
2019-02-28T16:13:06.176Z,23.07
2019-02-28T16:15:34.679Z,18.93
2019-02-28T16:18:02.766Z,21.60
2019-02-28T16:20:31.812Z,18.83
2019-02-28T16:23:01.444Z,18.80
2019-02-28T16:25:31.088Z,19.33
2019-02-28T16:27:59.522Z,19.00
2019-02-28T16:30:28.822Z,21.57
2019-02-28T16:32:58.638Z,18.90
2019-02-28T16:35:28.949Z,20.80
2019-02-28T16:37:57.556Z,24.20
2019-02-28T16:40:28.408Z,22.53
2019-02-28T16:42:56.888Z,23.17
2019-02-28T16:45:41.099Z,18.43
2019-02-28T16:48:09.097Z,22.67
2019-02-28T16:50:37.194Z,19.47
2019-02-28T16:53:24.853Z,19.10
2019-02-28T16:55:53.334Z,17.40
2019-02-28T16:58:22.760Z,20.83
2019-02-28T17:00:51.368Z,19.60
2019-02-28T17:03:19.806Z,16.50
2019-02-28T17:05:48.239Z,16.70
2019-02-28T17:08:18.601Z,18.67
2019-02-28T17:10:47.042Z,16.47
2019-02-28T17:13:19.927Z,14.80
2019-02-28T17:16:01.530Z,18.03
2019-02-28T17:18:39.887Z,18.53
2019-02-28T17:21:08.354Z,16.77
2019-02-28T17:23:38.016Z,17.17
2019-02-28T17:26:06.808Z,14.07
2019-02-28T17:28:55.240Z,14.47
2019-02-28T17:31:37.070Z,13.43
2019-02-28T17:34:05.629Z,10.67
2019-02-28T17:36:34.328Z,14.00
2019-02-28T17:39:03.160Z,10.90
2019-02-28T17:41:33.898Z,10.20
2019-02-28T17:44:25.782Z,12.97
2019-02-28T17:47:00.658Z,11.27
2019-02-28T17:50:05.377Z,13.93
2019-02-28T17:52:41.256Z,11.77
2019-02-28T17:55:46.060Z,11.23
2019-02-28T17:58:27.486Z,11.50
2019-02-28T18:00:59.316Z,14.60
2019-02-28T18:03:39.794Z,12.07
2019-02-28T18:06:12.028Z,18.87
2019-02-28T18:08:53.390Z,18.80
2019-02-28T18:11:46.121Z,20.40
2019-02-28T18:14:45.080Z,17.10
2019-02-28T18:17:37.860Z,15.83
2019-02-28T18:20:11.863Z,19.27
2019-02-28T18:22:52.828Z,15.47
2019-02-28T18:25:24.373Z,20.83
2019-02-28T18:28:22.638Z,18.20
2019-02-28T18:31:07.643Z,18.90
2019-02-28T18:33:36.701Z,20.47
2019-02-28T18:36:08.290Z,18.83
2019-02-28T18:38:36.783Z,20.67
2019-02-28T18:41:06.445Z,18.87
2019-02-28T18:43:35.311Z,16.17
2019-02-28T18:46:04.585Z,16.17
2019-02-28T18:48:33.056Z,19.87
2019-02-28T18:51:01.475Z,14.77
2019-02-28T18:53:29.885Z,12.17
2019-02-28T18:55:58.308Z,14.00
2019-02-28T18:58:26.745Z,9.83
2019-02-28T19:00:55.165Z,13.83
2019-02-28T19:03:23.590Z,10.33
2019-02-28T19:05:51.992Z,12.57
2019-02-28T19:08:20.421Z,11.10
2019-02-28T19:10:49.179Z,14.17
2019-02-28T19:13:17.611Z,11.43
2019-02-28T19:15:46.092Z,14.00
2019-02-28T19:18:14.506Z,9.97
2019-02-28T19:20:42.941Z,10.90
2019-02-28T19:23:11.360Z,10.97
2019-02-28T19:25:39.765Z,8.10
2019-02-28T19:28:08.190Z,12.53
2019-02-28T19:30:36.785Z,6.93
2019-02-28T19:33:05.199Z,10.57
2019-02-28T19:35:33.600Z,9.93
2019-02-28T19:38:02.036Z,6.77
2019-02-28T19:40:30.432Z,7.07
2019-02-28T19:42:58.854Z,10.67
2019-02-28T19:45:39.186Z,6.80
2019-02-28T19:48:07.603Z,9.07
2019-02-28T19:50:36.016Z,9.23
2019-02-28T19:53:04.505Z,8.63
2019-02-28T19:55:32.906Z,6.20
2019-02-28T19:58:01.334Z,7.90
2019-02-28T20:00:29.748Z,7.80
2019-02-28T20:02:58.164Z,6.30
2019-02-28T20:05:27.020Z,5.03
2019-02-28T20:07:55.443Z,11.17
2019-02-28T20:10:23.921Z,6.00
2019-02-28T20:12:52.333Z,6.30
2019-02-28T20:15:23.197Z,6.67
2019-02-28T20:17:51.696Z,7.60
2019-02-28T20:20:28.073Z,6.20
2019-02-28T20:22:56.613Z,10.17
2019-02-28T20:25:25.198Z,7.17
2019-02-28T20:27:53.617Z,5.80
2019-02-28T20:30:24.100Z,9.83
2019-02-28T20:32:52.933Z,7.83
2019-02-28T20:35:26.680Z,9.23
2019-02-28T20:37:51.560Z,5.97
2019-02-28T20:40:23.151Z,12.73
2019-02-28T20:42:51.616Z,8.67
2019-02-28T20:45:20.024Z,8.13
2019-02-28T20:47:48.440Z,7.70
2019-02-28T20:50:29.154Z,8.67
2019-02-28T20:52:57.567Z,8.33
2019-02-28T20:55:25.980Z,13.43
2019-02-28T20:57:54.404Z,11.73
2019-02-28T21:00:24.448Z,9.93
2019-02-28T21:02:52.857Z,8.90
2019-02-28T21:05:21.260Z,9.77
2019-02-28T21:07:49.675Z,5.90
2019-02-28T21:10:18.189Z,13.67
2019-02-28T21:12:46.605Z,4.97
2019-02-28T21:15:15.077Z,5.60
2019-02-28T21:17:43.808Z,9.53
2019-02-28T21:20:14.971Z,9.57
2019-02-28T21:22:43.384Z,8.90
2019-02-28T21:25:14.100Z,13.90
2019-02-28T21:27:42.514Z,9.37
2019-02-28T21:30:16.746Z,8.93
2019-02-28T21:32:45.148Z,8.90
2019-02-28T21:35:15.203Z,6.80
2019-02-28T21:38:02.955Z,7.27
2019-02-28T21:40:31.632Z,8.50
2019-02-28T21:43:00.056Z,6.30
2019-02-28T21:45:28.921Z,10.27
2019-02-28T21:47:57.522Z,11.10
2019-02-28T21:50:25.975Z,7.23
2019-02-28T21:52:54.394Z,11.10
2019-02-28T21:55:22.809Z,6.37
2019-02-28T21:57:51.218Z,5.77
2019-02-28T22:00:38.965Z,8.67
2019-02-28T22:03:07.385Z,9.70
2019-02-28T22:05:35.787Z,10.20
2019-02-28T22:08:04.209Z,6.67
2019-02-28T22:10:32.627Z,7.23
2019-02-28T22:13:01.117Z,7.37
2019-02-28T22:15:29.552Z,7.97
2019-02-28T22:17:57.981Z,10.40
2019-02-28T22:20:26.397Z,6.50
2019-02-28T22:22:54.821Z,11.23
2019-02-28T22:25:23.237Z,9.00
2019-02-28T22:27:51.649Z,7.30
2019-02-28T22:30:39.245Z,10.13
2019-02-28T22:33:18.074Z,12.90
2019-02-28T22:35:54.124Z,10.90
2019-02-28T22:38:22.537Z,5.93
2019-02-28T22:40:50.952Z,12.00
2019-02-28T22:43:19.356Z,8.83
2019-02-28T22:45:47.779Z,5.57
2019-02-28T22:48:16.189Z,7.07
2019-02-28T22:50:44.600Z,8.63
2019-02-28T22:53:13.019Z,6.57
2019-02-28T22:55:41.504Z,10.73
2019-02-28T22:58:11.948Z,3.80
2019-02-28T23:00:50.799Z,9.50
2019-02-28T23:03:19.485Z,5.27
2019-02-28T23:05:48.237Z,5.70
2019-02-28T23:08:16.653Z,10.47
2019-02-28T23:10:45.075Z,6.47
2019-02-28T23:13:13.480Z,8.13
2019-02-28T23:15:41.897Z,6.67
2019-02-28T23:18:10.297Z,6.00
2019-02-28T23:20:38.737Z,5.90
2019-02-28T23:23:07.149Z,4.23
2019-02-28T23:25:35.557Z,10.37
2019-02-28T23:28:09.243Z,5.73
2019-02-28T23:30:55.948Z,9.00
2019-02-28T23:33:24.368Z,8.17
2019-02-28T23:35:53.456Z,7.27
2019-02-28T23:38:21.892Z,10.07
2019-02-28T23:40:51.136Z,8.73
2019-02-28T23:43:19.545Z,5.63
2019-02-28T23:45:47.968Z,6.90
2019-02-28T23:48:16.381Z,4.30
2019-02-28T23:50:44.814Z,8.57
2019-02-28T23:53:13.197Z,3.80
2019-02-28T23:55:41.618Z,3.67
2019-02-28T23:58:10.023Z,6.07
